.
WxDataArchive / Data Records for 2013-05-29
2013-05-28 May 2013 2013-05-30

Data Records for Wednesday, 29 May 2013

Time	Temp	Chill	HIndex	Humid	Dewpt	 Wind 	HiWind	WindDir	Rain 	Barom 
-----	----	-----	------	-----	-----	------	------	-------	-----	----- 
00:00	75.1	75.1	76.7	71	65.0	1	3	248	0.00	29.848 
00:05	75.1	75.1	76.7	71	65.0	1	5	248	0.00	29.848 
00:10	75.1	75.1	76.7	71	65.0	1	4	270	0.00	29.848 
00:15	75.1	75.1	76.7	71	65.0	1	6	248	0.00	29.858 
00:20	74.9	74.9	74.9	71	64.8	1	3	248	0.00	29.858 
00:25	74.9	74.9	74.9	71	64.8	1	4	248	0.00	29.858 
00:30	74.9	74.9	74.9	71	64.8	1	3	248	0.00	29.862 
00:35	74.9	74.9	74.9	71	64.8	0	2	248	0.00	29.862 
00:40	74.9	74.9	74.9	71	64.8	1	4	248	0.00	29.862 
00:45	74.9	74.9	74.9	70	64.4	1	5	292	0.00	29.867 
00:50	74.9	74.9	74.9	70	64.4	1	4	248	0.00	29.867 
00:55	74.9	74.9	74.9	70	64.4	1	5	248	0.00	29.867 
01:00	74.9	74.9	74.9	70	64.4	1	4	270	0.00	29.867 
01:05	74.9	74.9	74.9	70	64.4	1	3	270	0.00	29.867 
01:10	74.9	74.9	74.9	70	64.4	1	5	270	0.00	29.867 
01:15	74.7	74.7	74.7	70	64.2	1	3	270	0.00	29.866 
01:20	74.6	74.6	74.6	70	64.2	1	4	270	0.00	29.866 
01:25	74.6	74.6	74.6	71	64.6	0	2	248	0.00	29.866 
01:30	74.4	74.4	74.4	71	64.4	0	1	248	0.00	29.867 
01:35	74.2	74.2	74.2	71	64.2	0	2	248	0.00	29.867 
01:40	74.0	74.0	74.0	71	64.0	0	2	248	0.00	29.867 
01:45	74.0	74.0	74.0	71	64.0	1	3	270	0.00	29.864 
01:50	73.9	73.9	73.9	72	64.3	0	2	270	0.00	29.864 
01:55	73.7	73.7	73.7	72	64.1	0	2	270	0.00	29.864 
02:00	73.5	73.5	73.5	72	63.9	0	3	270	0.00	29.865 
02:05	73.5	73.5	73.5	73	64.3	0	3	248	0.00	29.865 
02:10	73.3	73.3	73.3	73	64.1	0	3	248	0.00	29.865 
02:15	73.3	73.3	73.3	73	64.1	1	4	248	0.00	29.868 
02:20	73.2	73.2	73.2	73	64.0	0	2	248	0.00	29.868 
02:25	73.2	73.2	73.2	73	64.0	1	3	248	0.00	29.868 
02:30	73.2	73.2	73.2	73	64.0	1	3	248	0.00	29.867 
02:35	73.0	73.0	73.0	73	63.8	0	1	248	0.00	29.867 
02:40	73.0	73.0	73.0	73	63.8	0	2	248	0.00	29.867 
02:45	72.7	72.7	72.7	74	63.9	0	1	248	0.00	29.867 
02:50	72.5	72.5	72.5	74	63.7	0	2	248	0.00	29.867 
02:55	72.3	72.3	72.3	75	63.9	0	1	248	0.00	29.867 
03:00	72.1	72.1	72.1	75	63.7	0	2	248	0.00	29.869 
03:05	72.0	72.0	72.0	76	64.0	0	1	248	0.00	29.869 
03:10	71.8	71.8	71.8	76	63.8	0	2	248	0.00	29.869 
03:15	71.8	71.8	71.8	76	63.8	0	2	248	0.00	29.865 
03:20	71.6	71.6	71.6	77	64.0	0	1	248	0.00	29.865 
03:25	71.5	71.5	71.5	77	63.9	0	2	248	0.00	29.865 
03:30	71.3	71.3	71.3	77	63.7	0	2	248	0.00	29.867 
03:35	71.3	71.3	71.3	77	63.7	0	3	248	0.00	29.867 
03:40	71.1	71.1	71.1	77	63.5	1	4	270	0.00	29.867 
03:45	71.1	71.1	71.1	77	63.5	0	2	248	0.00	29.866 
03:50	71.1	71.1	71.1	77	63.5	1	6	248	0.00	29.866 
03:55	71.1	71.1	71.1	76	63.1	1	4	248	0.00	29.866 
04:00	71.1	71.1	71.1	76	63.1	0	3	248	0.00	29.869 
04:05	71.1	71.1	71.1	76	63.1	0	2	248	0.00	29.869 
04:10	71.1	71.1	71.1	75	62.8	1	4	248	0.00	29.869 
04:15	71.3	71.3	71.3	74	62.6	1	3	270	0.00	29.868 
04:20	71.3	71.3	71.3	73	62.2	1	5	270	0.00	29.868 
04:25	71.5	71.5	71.5	73	62.4	1	3	292	0.00	29.868 
04:30	71.5	71.5	71.5	72	62.0	1	3	270	0.00	29.867 
04:35	71.5	71.5	71.5	72	62.0	1	3	270	0.00	29.867 
04:40	71.5	71.5	71.5	71	61.6	1	3	248	0.00	29.867 
04:45	71.6	71.6	71.6	70	61.3	1	5	292	0.00	29.880 
04:50	71.8	71.8	71.8	70	61.5	1	4	270	0.00	29.880 
04:55	71.8	71.8	71.8	69	61.1	1	4	270	0.00	29.880 
05:00	71.8	71.8	71.8	69	61.1	1	3	270	0.00	29.881 
05:05	72.0	72.0	72.0	68	60.8	1	4	270	0.00	29.881 
05:10	72.0	72.0	72.0	68	60.8	1	3	248	0.00	29.881 
05:15	72.0	72.0	72.0	67	60.4	1	5	248	0.00	29.883 
05:20	72.0	72.0	72.0	67	60.4	1	3	248	0.00	29.883 
05:25	72.0	72.0	72.0	67	60.4	1	4	248	0.00	29.883 
05:30	72.0	72.0	72.0	67	60.4	1	4	248	0.00	29.883 
05:35	71.8	71.8	71.8	67	60.2	1	4	248	0.00	29.883 
05:40	71.8	71.8	71.8	67	60.2	1	3	270	0.00	29.883 
05:45	71.8	71.8	71.8	67	60.2	1	4	248	0.00	29.884 
05:50	71.6	71.6	71.6	67	60.0	1	6	248	0.00	29.884 
05:55	71.6	71.6	71.6	66	59.6	1	4	248	0.00	29.884 
06:00	71.6	71.6	71.6	66	59.6	1	4	248	0.00	29.883 
06:05	71.6	71.6	71.6	66	59.6	1	5	248	0.00	29.883 
06:10	71.6	71.6	71.6	66	59.6	1	3	248	0.00	29.883 
06:15	71.5	71.5	71.5	66	59.5	0	2	248	0.00	29.887 
06:20	71.3	71.3	71.3	66	59.3	0	2	248	0.00	29.887 
06:25	71.3	71.3	71.3	66	59.3	1	4	248	0.00	29.887 
06:30	71.1	71.1	71.1	66	59.2	1	3	292	0.00	29.893 
06:35	71.3	71.3	71.3	66	59.3	1	3	292	0.00	29.893 
06:40	71.3	71.3	71.3	66	59.3	0	3	292	0.00	29.893 
06:45	71.1	71.1	71.1	66	59.2	1	5	270	0.00	29.900 
06:50	71.1	71.1	71.1	66	59.2	1	6	248	0.00	29.900 
06:55	71.1	71.1	71.1	66	59.2	1	3	248	0.00	29.900 
07:00	71.1	71.1	71.1	66	59.2	1	6	270	0.00	29.899 
07:05	71.1	71.1	71.1	66	59.2	1	4	270	0.00	29.899 
07:10	71.1	71.1	71.1	66	59.2	1	4	248	0.00	29.899 
07:15	71.1	71.1	71.1	66	59.2	1	5	270	0.00	29.898 
07:20	71.1	71.1	71.1	66	59.2	1	4	270	0.00	29.898 
07:25	71.3	71.3	71.3	66	59.3	1	5	270	0.00	29.898 
07:30	71.3	71.3	71.3	66	59.3	1	6	248	0.00	29.900 
07:35	71.3	71.3	71.3	66	59.3	1	3	248	0.00	29.900 
07:40	71.3	71.3	71.3	66	59.3	1	5	248	0.00	29.900 
07:45	71.5	71.5	71.5	65	59.1	1	5	292	0.00	29.915 
07:50	71.6	71.6	71.6	66	59.6	1	4	248	0.00	29.915 
07:55	71.8	71.8	71.8	65	59.4	2	5	248	0.00	29.915 
08:00	72.1	72.1	72.1	65	59.7	2	4	248	0.00	29.916 
08:05	72.5	72.5	72.5	64	59.6	1	4	248	0.00	29.916 
08:10	72.8	72.8	72.8	64	59.9	1	5	270	0.00	29.916 
08:15	72.8	72.8	72.8	64	59.9	2	9	248	0.00	29.916 
08:20	73.0	73.0	73.0	64	60.1	2	5	248	0.00	29.916 
08:25	73.2	73.2	73.2	65	60.7	1	4	270	0.00	29.916 
08:30	73.3	73.3	73.3	65	60.8	1	4	270	0.00	29.923 
08:35	73.7	73.7	73.7	64	60.7	2	5	270	0.00	29.923 
08:40	73.9	73.9	73.9	63	60.5	2	5	248	0.00	29.923 
08:45	74.0	74.0	74.0	63	60.6	1	5	225	0.00	29.930 
08:50	74.0	74.0	74.0	63	60.6	2	5	270	0.00	29.930 
08:55	73.7	73.7	73.7	64	60.7	1	4	248	0.00	29.930 
09:00	73.7	73.7	73.7	64	60.7	1	3	248	0.00	29.936 
09:05	73.7	73.7	73.7	64	60.7	1	4	248	0.00	29.936 
09:10	73.7	73.7	73.7	64	60.7	2	5	270	0.00	29.936 
09:15	73.7	73.7	73.7	64	60.7	1	4	248	0.00	29.936 
09:20	73.7	73.7	73.7	65	61.2	1	4	248	0.00	29.936 
09:25	73.9	73.9	73.9	65	61.4	2	4	270	0.00	29.936 
09:30	73.9	73.9	73.9	65	61.4	1	4	270	0.00	29.941 
09:35	74.2	74.2	74.2	65	61.7	1	2	270	0.00	29.941 
09:40	74.6	74.6	74.6	63	61.2	2	5	270	0.00	29.941 
09:45	74.6	74.6	74.6	63	61.2	2	5	270	0.00	29.937 
09:50	74.7	74.7	74.7	63	61.2	2	6	270	0.00	29.937 
09:55	74.9	74.9	74.9	63	61.4	1	4	270	0.00	29.937 
10:00	75.3	75.3	77.4	64	62.3	1	3	270	0.00	29.944 
10:05	75.8	75.8	77.8	63	62.3	1	3	270	0.00	29.944 
10:10	76.0	76.0	78.0	62	62.0	2	4	270	0.00	29.944 
10:15	76.0	76.0	78.0	62	62.0	2	5	270	0.00	29.945 
10:20	75.8	75.8	77.8	62	61.8	3	6	270	0.00	29.945 
10:25	76.0	76.0	78.0	62	62.0	2	6	292	0.00	29.945 
10:30	76.1	76.1	78.0	62	62.1	2	6	270	0.00	29.944 
10:35	76.3	76.3	78.2	63	62.8	2	3	270	0.00	29.944 
10:40	76.7	76.7	78.5	62	62.7	1	3	270	0.00	29.944 
10:45	77.0	77.0	78.8	62	63.0	1	6	270	0.00	29.941 
10:50	76.8	76.8	78.6	62	62.8	2	5	270	0.00	29.941 
10:55	76.7	76.7	78.5	61	62.2	3	6	270	0.00	29.941 
11:00	76.7	76.7	78.5	63	63.1	1	3	270	0.00	29.945 
11:05	76.7	76.7	78.5	62	62.7	1	5	270	0.00	29.945 
11:10	76.8	76.8	78.6	63	63.2	1	4	270	0.00	29.945 
11:15	76.8	76.8	78.6	62	62.8	2	5	292	0.00	29.949 
11:20	77.0	77.0	78.8	62	63.0	2	4	292	0.00	29.949 
11:25	77.2	77.2	79.0	62	63.2	2	4	292	0.00	29.949 
11:30	77.4	77.4	79.2	62	63.3	2	4	292	0.00	29.951 
11:35	77.7	77.7	79.4	62	63.6	1	3	292	0.00	29.951 
11:40	78.1	78.1	79.8	60	63.1	1	4	292	0.00	29.951 
11:45	78.6	78.6	80.4	62	64.5	1	4	270	0.00	29.957 
11:50	79.4	79.4	81.2	61	64.8	1	4	270	0.00	29.957 
11:55	79.8	79.8	81.5	59	64.2	1	4	270	0.00	29.957 
12:00	79.6	79.6	81.2	58	63.5	2	3	270	0.00	29.961 
12:05	79.2	79.2	80.8	59	63.6	2	5	270	0.00	29.961 
12:10	79.2	79.2	81.1	62	65.0	2	5	270	0.00	29.961 
12:15	79.6	79.6	81.3	59	64.0	2	5	270	0.00	29.966 
12:20	79.4	79.4	81.1	60	64.3	3	5	292	0.00	29.966 
12:25	79.6	79.6	81.3	60	64.5	2	5	270	0.00	29.966 
12:30	79.8	79.8	81.7	61	65.1	2	4	270	0.00	29.969 
12:35	80.5	80.5	82.4	60	65.3	1	5	270	0.00	29.969 
12:40	81.1	81.1	82.8	57	64.4	1	4	270	0.00	29.969 
12:45	81.1	81.1	82.8	57	64.4	2	4	270	0.00	29.969 
12:50	81.1	81.1	82.8	57	64.4	2	5	270	0.00	29.969 
12:55	81.2	81.2	83.0	58	65.0	1	3	270	0.00	29.969 
13:00	81.2	81.2	83.0	58	65.0	1	4	270	0.00	29.968 
13:05	81.4	81.4	83.0	56	64.2	2	4	270	0.00	29.968 
13:10	81.8	81.8	83.5	56	64.5	2	4	270	0.00	29.968 
13:15	82.0	82.0	83.6	55	64.2	2	5	270	0.00	29.964 
13:20	82.0	82.0	83.7	56	64.7	2	5	270	0.00	29.964 
13:25	82.4	82.4	83.9	54	64.1	2	5	270	0.00	29.964 
13:30	82.6	82.6	84.1	54	64.2	2	5	270	0.00	29.965 
13:35	82.6	82.6	84.1	54	64.2	2	5	248	0.00	29.965 
13:40	82.6	82.6	84.3	55	64.8	2	4	270	0.00	29.965 
13:45	82.4	82.4	83.7	53	63.5	3	6	270	0.00	29.965 
13:50	81.8	81.8	83.0	53	63.0	3	7	270	0.00	29.965 
13:55	81.2	81.2	82.3	53	62.4	3	7	270	0.00	29.965 
14:00	81.4	81.4	82.5	53	62.6	2	5	270	0.00	29.963 
14:05	82.0	82.0	83.2	53	63.2	2	5	270	0.00	29.963 
14:10	82.8	82.8	83.8	51	62.8	2	5	270	0.00	29.963 
14:15	82.8	82.8	83.7	50	62.2	3	6	270	0.00	29.961 
14:20	83.0	83.0	84.1	51	63.0	2	5	270	0.00	29.961 
14:25	83.4	83.4	84.6	51	63.3	2	4	270	0.00	29.961 
14:30	83.6	83.6	84.6	50	63.0	2	5	270	0.00	29.961 
14:35	83.4	83.4	84.4	50	62.8	1	4	292	0.00	29.961 
14:40	83.0	83.0	84.1	51	63.0	2	5	292	0.00	29.961 
14:45	83.2	83.2	84.3	51	63.2	2	5	292	0.00	29.962 
14:50	83.4	83.4	85.0	53	64.4	1	4	292	0.00	29.962 
14:55	83.4	83.4	85.2	54	65.0	1	4	292	0.00	29.962 
15:00	83.4	83.4	84.2	49	62.2	2	4	270	0.00	29.960 
15:05	82.8	82.8	83.7	50	62.2	2	4	270	0.00	29.960 
15:10	83.0	83.0	84.7	54	64.6	1	5	270	0.00	29.960 
15:15	83.2	83.2	84.1	50	62.6	2	4	270	0.00	29.961 
15:20	83.4	83.4	84.8	52	63.9	1	4	270	0.00	29.961 
15:25	83.6	83.6	84.6	50	63.0	1	4	270	0.00	29.961 
15:30	83.0	83.0	83.9	50	62.4	2	4	270	0.00	29.960 
15:35	82.6	82.6	83.8	52	63.2	1	3	270	0.00	29.960 
15:40	82.4	82.4	83.5	52	63.0	1	3	270	0.00	29.960 
15:45	82.2	82.2	83.6	54	63.9	1	2	270	0.00	29.961 
15:50	82.2	82.2	83.6	54	63.9	0	2	270	0.00	29.961 
15:55	82.8	82.8	84.2	53	63.9	1	3	270	0.00	29.961 
16:00	83.0	83.0	84.3	52	63.5	1	3	270	0.00	29.959 
16:05	83.6	83.6	84.8	51	63.5	1	6	270	0.00	29.959 
16:10	84.5	84.5	86.5	53	65.5	1	4	270	0.00	29.959 
16:15	84.9	84.9	85.8	48	63.0	2	5	270	0.00	29.956 
16:20	85.3	85.3	86.6	49	63.9	2	4	270	0.00	29.956 
16:25	84.7	84.7	85.0	45	61.0	2	4	248	0.00	29.956 
16:30	84.7	84.7	85.2	46	61.6	1	4	270	0.00	29.955 
16:35	85.3	85.3	85.7	45	61.5	1	4	270	0.00	29.955 
16:40	85.3	85.3	85.5	44	60.9	2	4	270	0.00	29.955 
16:45	85.5	85.5	85.5	43	60.4	1	3	292	0.00	29.949 
16:50	85.7	85.7	86.0	44	61.2	1	4	248	0.00	29.949 
16:55	85.7	85.7	86.2	45	61.9	1	3	248	0.00	29.949 
17:00	85.5	85.5	86.2	46	62.3	1	5	270	0.00	29.945 
17:05	85.1	85.1	85.4	45	61.3	1	4	270	0.00	29.945 
17:10	84.7	84.7	85.6	48	62.8	1	6	270	0.00	29.945 
17:15	84.7	84.7	85.2	46	61.6	2	6	248	0.00	29.943 
17:20	85.1	85.1	85.7	46	62.0	1	3	248	0.00	29.943 
17:25	85.1	85.1	85.2	44	60.7	1	3	315	0.00	29.943 
17:30	84.7	84.7	84.7	44	60.3	2	4	292	0.00	29.944 
17:35	84.1	84.1	84.1	44	59.8	2	5	270	0.00	29.944 
17:40	84.0	84.0	83.8	43	59.1	2	5	248	0.00	29.944 
17:45	83.6	83.6	83.9	46	60.6	1	4	270	0.00	29.943 
17:50	83.6	83.6	83.9	46	60.6	1	3	292	0.00	29.943 
17:55	83.8	83.8	83.7	44	59.5	1	3	292	0.00	29.943 
18:00	83.8	83.8	83.9	45	60.2	1	4	90	0.00	29.944 
18:05	83.4	83.4	83.8	47	61.0	1	4	270	0.00	29.944 
18:10	83.2	83.2	83.4	46	60.2	1	5	270	0.00	29.944 
18:15	83.4	83.4	84.0	48	61.6	1	3	270	0.00	29.948 
18:20	83.6	83.6	84.2	48	61.8	1	2	270	0.00	29.948 
18:25	83.8	83.8	84.1	46	60.8	1	4	315	0.00	29.948 
18:30	83.6	83.6	83.9	46	60.6	1	4	292	0.00	29.944 
18:35	83.4	83.4	83.7	46	60.4	1	5	270	0.00	29.944 
18:40	83.2	83.2	83.6	47	60.8	0	2	270	0.00	29.944 
18:45	83.0	83.0	83.4	47	60.7	1	3	270	0.00	29.942 
18:50	82.6	82.6	83.0	47	60.3	0	3	270	0.00	29.942 
18:55	82.6	82.6	83.0	47	60.3	1	3	270	0.00	29.942 
19:00	82.4	82.4	82.9	48	60.7	0	2	270	0.00	29.942 
19:05	82.2	82.2	82.7	48	60.5	0	3	270	0.00	29.942 
19:10	82.2	82.2	82.8	49	61.1	0	3	270	0.00	29.942 
19:15	82.0	82.0	82.6	49	60.9	1	3	270	0.00	29.939 
19:20	81.8	81.8	82.6	50	61.3	0	2	270	0.00	29.939 
19:25	81.8	81.8	82.6	50	61.3	0	1	270	0.00	29.939 
19:30	82.0	82.0	82.8	50	61.5	0	2	270	0.00	29.939 
19:35	82.0	82.0	82.8	50	61.5	0	3	270	0.00	29.939 
19:40	82.2	82.2	82.7	48	60.5	1	10	248	0.00	29.939 
19:45	82.2	82.2	82.7	48	60.5	1	3	248	0.00	29.937 
19:50	82.0	82.0	82.5	48	60.3	1	2	270	0.00	29.937 
19:55	82.0	82.0	82.5	48	60.3	0	2	270	0.00	29.937 
20:00	81.6	81.6	81.9	47	59.4	1	3	270	0.00	29.932 
20:05	81.4	81.4	81.9	48	59.8	0	4	270	0.00	29.932 
20:10	81.2	81.2	81.8	49	60.2	0	2	270	0.00	29.932 
20:15	81.1	81.1	81.8	50	60.7	0	1	270	0.00	29.931 
20:20	80.7	80.7	81.6	51	60.9	0	1	270	0.00	29.931 
20:25	80.3	80.3	81.2	51	60.5	0	2	270	0.00	29.931 
20:30	79.9	79.9	80.9	52	60.7	0	1	270	0.00	29.932 
20:35	79.6	79.6	80.7	53	60.9	0	0	---	0.00	29.932 
20:40	79.2	79.2	80.4	54	61.1	0	0	---	0.00	29.932 
20:45	78.8	78.8	80.1	54	60.7	0	0	---	0.00	29.940 
20:50	78.5	78.5	79.9	55	61.0	0	0	---	0.00	29.940 
20:55	78.1	78.1	79.5	55	60.6	0	0	---	0.00	29.940 
21:00	77.9	77.9	79.4	56	60.9	0	0	---	0.00	29.943 
21:05	77.6	77.6	79.2	57	61.1	0	0	---	0.00	29.943 
21:10	77.2	77.2	78.9	57	60.8	0	1	270	0.00	29.943 
21:15	76.8	76.8	78.6	58	60.9	0	0	---	0.00	29.943 
21:20	76.5	76.5	78.4	59	61.1	0	0	---	0.00	29.943 
21:25	76.1	76.1	78.1	59	60.7	0	0	---	0.00	29.943 
21:30	75.8	75.8	77.9	60	60.9	0	0	---	0.00	29.943 
21:35	75.6	75.6	77.7	61	61.2	0	0	---	0.00	29.943 
21:40	75.3	75.3	77.5	61	60.9	0	0	---	0.00	29.943 
21:45	75.1	75.1	77.3	62	61.2	0	0	---	0.00	29.946 
21:50	74.7	74.7	74.7	62	60.8	0	0	---	0.00	29.946 
21:55	74.6	74.6	74.6	63	61.2	0	0	---	0.00	29.946 
22:00	74.2	74.2	74.2	63	60.8	0	0	---	0.00	29.952 
22:05	73.9	73.9	73.9	64	60.9	0	0	---	0.00	29.952 
22:10	73.7	73.7	73.7	65	61.2	0	0	---	0.00	29.952 
22:15	73.3	73.3	73.3	65	60.8	0	0	---	0.00	29.961 
22:20	73.0	73.0	73.0	66	61.0	0	0	---	0.00	29.961 
22:25	72.7	72.7	72.7	66	60.7	0	0	---	0.00	29.961 
22:30	72.3	72.3	72.3	67	60.7	0	0	---	0.00	29.967 
22:35	72.1	72.1	72.1	68	60.9	0	0	---	0.00	29.967 
22:40	71.8	71.8	71.8	68	60.7	0	0	---	0.00	29.967 
22:45	71.5	71.5	71.5	69	60.8	0	0	---	0.00	29.973 
22:50	71.3	71.3	71.3	69	60.6	0	0	---	0.00	29.973 
22:55	70.9	70.9	70.9	70	60.6	0	0	---	0.00	29.973 
23:00	70.8	70.8	70.8	70	60.5	0	0	---	0.00	29.972 
23:05	70.6	70.6	70.6	71	60.7	0	0	---	0.00	29.972 
23:10	70.4	70.4	70.4	72	60.9	0	0	---	0.00	29.972 
23:15	70.3	70.3	70.3	73	61.2	0	0	---	0.00	29.964 
23:20	69.9	69.9	69.9	73	60.8	0	0	---	0.00	29.964 
23:25	69.8	69.8	69.8	73	60.7	0	0	---	0.00	29.964 
23:30	69.8	69.8	69.8	73	60.7	0	0	---	0.00	29.965 
23:35	69.8	69.8	69.8	73	60.7	0	0	---	0.00	29.965 
23:40	69.9	69.9	69.9	73	60.8	0	0	---	0.00	29.965 
23:45	70.1	70.1	70.1	72	60.6	0	0	---	0.00	29.963 
23:50	70.3	70.3	70.3	72	60.8	0	0	---	0.00	29.963 
23:55	70.3	70.3	70.3	72	60.8	0	0	---	0.00	29.963 

CoCoRaHS
IN-AL-39
A2 Web Hosting
Creative Commons License
GoDaddy
search engine by freefind advanced

loaded 2018-11-16 11:00:57 • last modified 2010-11-18 10:43:29
Privacy PolicyDisclaimer
• wx.awcolley.com is powered by PmWiki v.2002016 •
• all content (unless otherwise noted) © 2018 A W Colley